createdAt,value
2022-10-11T00:04:17.976Z,8.25
2022-10-11T00:09:19.236Z,8.11
2022-10-11T00:14:20.753Z,7.99
2022-10-11T00:19:22.061Z,7.91
2022-10-11T00:24:23.310Z,7.98
2022-10-11T00:29:24.566Z,8.06
2022-10-11T00:34:25.816Z,8.05
2022-10-11T00:39:27.080Z,7.78
2022-10-11T00:44:29.020Z,7.76
2022-10-11T00:49:35.796Z,7.72
2022-10-11T00:54:40.821Z,7.77
2022-10-11T00:59:49.599Z,7.43
2022-10-11T01:05:05.656Z,7.73
2022-10-11T01:10:12.943Z,7.66
2022-10-11T01:15:22.731Z,7.62
2022-10-11T01:20:31.929Z,7.61
2022-10-11T01:25:51.826Z,7.34
2022-10-11T01:30:56.376Z,7.19
2022-10-11T01:36:05.137Z,7.27
2022-10-11T01:41:09.270Z,7.51
2022-10-11T01:46:11.608Z,7.17
2022-10-11T01:51:13.117Z,7.19
2022-10-11T01:56:22.801Z,7.54
2022-10-11T02:01:34.820Z,7.11
2022-10-11T02:06:46.872Z,7.22
2022-10-11T02:17:55.194Z,6.93
2022-10-11T02:23:02.343Z,6.72
2022-10-11T02:28:05.983Z,6.99
2022-10-11T02:33:09.643Z,6.92
2022-10-11T02:38:31.124Z,6.86
2022-10-11T02:43:43.444Z,6.75
2022-10-11T02:48:44.688Z,6.48
2022-10-11T02:53:45.928Z,6.67
2022-10-11T02:58:47.173Z,6.68
2022-10-11T03:03:48.472Z,6.55
2022-10-11T03:08:49.702Z,6.50
2022-10-11T03:13:50.938Z,6.50
2022-10-11T03:18:52.161Z,6.41
2022-10-11T03:23:53.485Z,6.49
2022-10-11T03:28:55.115Z,6.55
2022-10-11T03:33:56.416Z,6.40
2022-10-11T03:38:59.184Z,6.30
2022-10-11T03:44:00.422Z,6.37
2022-10-11T03:49:01.650Z,6.42
2022-10-11T03:54:03.045Z,5.98
2022-10-11T03:59:04.319Z,6.30
2022-10-11T04:04:05.803Z,6.29
2022-10-11T04:09:07.017Z,6.32
2022-10-11T04:14:08.332Z,6.09
2022-10-11T04:19:09.557Z,5.98
2022-10-11T04:24:11.567Z,6.04
2022-10-11T04:29:12.835Z,6.14
2022-10-11T04:34:14.127Z,6.19
2022-10-11T04:39:15.443Z,6.27
2022-10-11T04:44:16.685Z,6.10
2022-10-11T04:49:17.934Z,5.96
2022-10-11T04:54:19.347Z,5.98
2022-10-11T04:59:20.653Z,5.77
2022-10-11T05:04:23.709Z,5.96
2022-10-11T05:09:24.958Z,6.01
2022-10-11T05:14:26.243Z,5.99
2022-10-11T05:19:27.536Z,5.84
2022-10-11T05:24:28.777Z,5.88
2022-10-11T05:29:30.192Z,5.82
2022-10-11T05:34:31.450Z,5.73
2022-10-11T05:39:32.738Z,5.59
2022-10-11T05:44:34.050Z,5.58
2022-10-11T05:49:35.306Z,5.59
2022-10-11T05:54:36.636Z,5.64
2022-10-11T05:59:37.859Z,5.64
2022-10-11T06:04:39.623Z,5.68
2022-10-11T06:09:40.862Z,5.73
2022-10-11T06:14:42.173Z,5.63
2022-10-11T06:19:43.407Z,5.61
2022-10-11T06:24:44.664Z,5.71
2022-10-11T06:29:45.919Z,5.82
2022-10-11T06:34:47.274Z,6.01
2022-10-11T06:39:50.203Z,6.14
2022-10-11T06:44:51.591Z,6.27
2022-10-11T06:49:52.863Z,6.45
2022-10-11T06:54:54.124Z,6.60
2022-10-11T06:59:55.371Z,6.74
2022-10-11T07:04:56.621Z,6.99
2022-10-11T07:09:57.872Z,6.97
2022-10-11T07:14:59.137Z,7.18
2022-10-11T07:20:00.380Z,7.26
2022-10-11T07:25:01.847Z,7.40
2022-10-11T07:30:03.297Z,7.49
2022-10-11T07:35:04.735Z,7.60
2022-10-11T07:40:10.613Z,7.73
2022-10-11T07:45:11.836Z,7.69
2022-10-11T07:50:13.570Z,7.76
2022-10-11T07:55:14.859Z,7.93
2022-10-11T08:00:16.211Z,7.85
2022-10-11T08:05:17.669Z,7.95
2022-10-11T08:10:18.941Z,8.03
2022-10-11T08:15:20.277Z,8.22
2022-10-11T08:20:21.665Z,8.05
2022-10-11T08:25:23.137Z,8.40
2022-10-11T08:30:24.458Z,8.56
2022-10-11T08:35:25.742Z,8.63
2022-10-11T08:40:30.374Z,8.73
2022-10-11T08:45:50.801Z,8.94
2022-10-11T08:50:54.195Z,9.02
2022-10-11T08:55:55.506Z,9.03
2022-10-11T09:00:57.787Z,9.18
2022-10-11T09:06:20.290Z,9.49
2022-10-11T09:11:31.100Z,9.32
2022-10-11T09:16:35.438Z,9.41
2022-10-11T09:21:51.649Z,9.52
2022-10-11T09:26:56.818Z,10.01
2022-10-11T09:31:58.741Z,10.04
2022-10-11T09:37:15.275Z,9.94
2022-10-11T09:42:17.073Z,10.33
2022-10-11T09:47:25.900Z,10.59
2022-10-11T09:52:27.179Z,10.71
2022-10-11T09:57:29.960Z,10.63
2022-10-11T10:02:38.901Z,10.64
2022-10-11T10:07:41.067Z,10.88
2022-10-11T10:12:42.437Z,11.13
2022-10-11T10:17:50.959Z,11.36
2022-10-11T10:22:52.399Z,11.35
2022-10-11T10:27:58.168Z,11.66
2022-10-11T10:33:05.467Z,11.54
2022-10-11T10:38:26.804Z,11.57
2022-10-11T10:43:31.979Z,11.92
2022-10-11T10:49:02.022Z,11.81
2022-10-11T10:53:57.325Z,11.66
2022-10-11T10:59:17.257Z,11.85
2022-10-11T11:04:32.364Z,11.99
2022-10-11T11:09:36.626Z,12.15
2022-10-11T11:14:40.595Z,12.16
2022-10-11T11:19:59.910Z,12.06
2022-10-11T11:25:19.717Z,12.43
2022-10-11T11:30:30.216Z,12.35
2022-10-11T11:35:37.132Z,12.60
2022-10-11T11:40:41.535Z,12.46
2022-10-11T11:45:48.474Z,12.44
2022-10-11T11:50:55.255Z,12.43
2022-10-11T11:55:56.451Z,12.57
2022-10-11T12:01:15.539Z,12.43
2022-10-11T12:06:19.383Z,12.63
2022-10-11T12:11:31.786Z,12.86
2022-10-11T12:16:56.526Z,12.83
2022-10-11T12:22:18.751Z,12.82
2022-10-11T12:27:39.952Z,12.98
2022-10-11T12:32:41.197Z,12.97
2022-10-11T12:37:42.420Z,13.06
2022-10-11T12:43:03.644Z,13.09
2022-10-11T12:48:04.861Z,13.14
2022-10-11T12:53:24.565Z,13.48
2022-10-11T12:58:28.694Z,13.26
2022-10-11T13:03:33.413Z,13.25
2022-10-11T13:08:36.500Z,13.20
2022-10-11T13:13:42.798Z,13.02
2022-10-11T13:18:45.729Z,13.09
2022-10-11T13:23:46.990Z,13.31
2022-10-11T13:28:48.315Z,13.25
2022-10-11T13:33:54.635Z,13.59
2022-10-11T13:38:57.385Z,13.45
2022-10-11T13:43:59.536Z,13.75
2022-10-11T13:49:05.545Z,13.53
2022-10-11T13:54:11.730Z,13.63
2022-10-11T13:59:19.440Z,13.71
2022-10-11T14:04:21.058Z,13.59
2022-10-11T14:09:34.250Z,13.81
2022-10-11T14:14:35.736Z,13.75
2022-10-11T14:19:37.447Z,13.75
2022-10-11T14:24:38.724Z,13.56
2022-10-11T14:29:45.637Z,13.52
2022-10-11T14:34:52.675Z,13.52
2022-10-11T14:39:53.891Z,13.62
2022-10-11T14:44:55.139Z,13.74
2022-10-11T14:49:56.374Z,13.68
2022-10-11T14:54:57.608Z,13.89
2022-10-11T14:59:58.840Z,13.97
2022-10-11T15:05:00.083Z,14.10
2022-10-11T15:10:01.357Z,13.82
2022-10-11T15:15:02.685Z,13.91
2022-10-11T15:20:04.049Z,13.83
2022-10-11T15:25:05.647Z,13.79
2022-10-11T15:30:12.620Z,13.87
2022-10-11T15:35:14.237Z,13.90
2022-10-11T15:40:22.828Z,13.88
2022-10-11T15:45:24.132Z,13.82
2022-10-11T15:50:39.225Z,13.67
2022-10-11T15:55:44.485Z,13.69
2022-10-11T16:00:46.784Z,13.59
2022-10-11T16:05:48.211Z,13.57
2022-10-11T16:10:49.928Z,13.55
2022-10-11T16:15:51.251Z,13.46
2022-10-11T16:20:52.575Z,13.43
2022-10-11T16:26:00.910Z,13.35
2022-10-11T16:31:06.494Z,13.32
2022-10-11T16:36:26.579Z,13.24
2022-10-11T16:41:27.931Z,13.14
2022-10-11T16:46:31.893Z,13.15
2022-10-11T16:51:33.459Z,13.00
2022-10-11T16:56:39.537Z,12.87
2022-10-11T17:01:41.366Z,12.70
2022-10-11T17:06:43.882Z,12.58
2022-10-11T17:11:45.308Z,12.45
2022-10-11T17:16:46.557Z,12.28
2022-10-11T17:21:47.830Z,12.32
2022-10-11T17:26:49.102Z,12.19
2022-10-11T17:31:50.444Z,11.99
2022-10-11T17:36:51.747Z,11.96
2022-10-11T17:41:53.048Z,11.86
2022-10-11T17:46:54.296Z,11.62
2022-10-11T17:51:56.521Z,11.45
2022-10-11T17:56:58.180Z,11.26
2022-10-11T18:01:59.431Z,11.31
2022-10-11T18:07:00.837Z,11.27
2022-10-11T18:12:02.223Z,11.22
2022-10-11T18:17:03.636Z,11.17
2022-10-11T18:22:07.222Z,11.05
2022-10-11T18:27:08.683Z,11.00
2022-10-11T18:32:09.989Z,10.95
2022-10-11T18:37:11.224Z,10.69
2022-10-11T18:42:12.448Z,10.82
2022-10-11T18:47:13.684Z,10.81
2022-10-11T18:52:15.168Z,10.68
2022-10-11T18:57:16.804Z,10.60
2022-10-11T19:02:18.214Z,10.25
2022-10-11T19:07:19.861Z,10.27
2022-10-11T19:12:21.161Z,10.19
2022-10-11T19:17:22.813Z,10.11
2022-10-11T19:22:24.116Z,9.97
2022-10-11T19:27:25.490Z,9.86
2022-10-11T19:32:26.799Z,9.88
2022-10-11T19:37:28.085Z,9.64
2022-10-11T19:42:29.704Z,9.65
2022-10-11T19:47:31.702Z,9.54
2022-10-11T19:52:33.451Z,9.59
2022-10-11T19:57:35.010Z,9.48
2022-10-11T20:02:36.293Z,9.38
2022-10-11T20:07:37.532Z,9.12
2022-10-11T20:12:42.385Z,9.15
2022-10-11T20:17:50.000Z,9.15
2022-10-11T20:22:53.348Z,9.12
2022-10-11T20:27:54.585Z,9.08
2022-10-11T20:32:55.856Z,8.97
2022-10-11T20:37:57.139Z,8.89
2022-10-11T20:42:58.365Z,8.85
2022-10-11T20:47:59.594Z,8.77
2022-10-11T20:53:00.880Z,8.42
2022-10-11T20:58:02.150Z,8.58
2022-10-11T21:03:03.396Z,8.48
2022-10-11T21:08:04.919Z,8.36
2022-10-11T21:13:06.204Z,8.35
2022-10-11T21:18:07.752Z,8.28
2022-10-11T21:23:09.669Z,8.30
2022-10-11T21:28:10.956Z,8.06
2022-10-11T21:33:12.292Z,8.21
2022-10-11T21:38:13.543Z,7.57
2022-10-11T21:43:14.794Z,7.93
2022-10-11T21:48:16.125Z,8.02
2022-10-11T21:53:17.356Z,7.90
2022-10-11T21:58:18.585Z,7.87
2022-10-11T22:03:20.122Z,7.79
2022-10-11T22:08:22.395Z,7.82
2022-10-11T22:13:24.294Z,7.81
2022-10-11T22:18:25.562Z,7.27
2022-10-11T22:23:26.798Z,7.59
2022-10-11T22:28:28.034Z,7.53
2022-10-11T22:33:29.322Z,7.63
2022-10-11T22:38:30.572Z,7.52
2022-10-11T22:43:31.813Z,7.44
2022-10-11T22:48:33.165Z,7.35
2022-10-11T22:53:34.432Z,7.35
2022-10-11T22:58:35.685Z,7.30
2022-10-11T23:03:37.371Z,7.28
2022-10-11T23:08:38.685Z,7.26
2022-10-11T23:13:39.952Z,7.22
2022-10-11T23:18:41.529Z,7.22
2022-10-11T23:23:42.835Z,7.14
2022-10-11T23:28:44.250Z,7.09
2022-10-11T23:33:46.284Z,6.93
2022-10-11T23:38:55.179Z,7.05
2022-10-11T23:43:57.176Z,7.08
2022-10-11T23:48:58.424Z,6.88
2022-10-11T23:53:59.701Z,6.86
2022-10-11T23:59:00.921Z,6.86
